Kezdőlap
METAR-TAF:

METAR-TAF

Repülőterek :

Haidarábád, India

földrajzi szélesség: 17-14-00N, földrajzi hosszúság: 078-26-00E, magasság: 617 m

Jelenlegi meteorológiai megfigyelések

A jelentés 11 perccel ezelõtt készült, 07:00 UTC
Nyugati szél 12 kt széllökések: 22 kt
Hőmérséklet 34°C
Páratartalom 53%
Légköri nyomás 1006 hPa
Látótávolság: 6000 m
Kevés felhő 2000 lábon

METAR: VOHS 280700Z 26012G22KT 6000 FEW020 34/23 Q1006 NOSIG

Idő: 12:41 (07:11 UTC)

Előrejelzés

A jelentés 2 órával és 11 perccel ezelõtt készült, 05:00 UTC
Az előrejelzés 28-én 06 óra UTC és 28-én 15 óra UTC között érvényes
Nyugati szél 15 kt
Látótávolság: 6000 m
Szórványos felhőzet 1500 lábon
Szórványos felhőzet 2500 lábon
28-én 10 óra UTC és 28-én 14 óra UTC között ideiglenes
Nyugati szél 13 kt széllökések: 23 kt
Kevés felhő 3000 lábon, Cumulonimbus.

TAF: VOHS 280500Z 2806/2815 28015KT 6000 SCT015 SCT025 TEMPO 2810/2814 28013G23KT FEW030CB

Meteorológiai megfigyelések és előrejelzések több, mint 4000 repülőtéren (METAR és TAF jelentéseket).

A térképen piros és sárga pontok jelzik az elérhető meteorológiai állomásokat.

Mozgassa az egeret a pont fölött, hogy megjelenjen az állomás neve.

Azután kattintson az időjárási megfigyelések és előrejelzések megtekintéséhez.

A térkép megváltoztatása: kattintson a fekete keresztel jelölt zöld gombra ráközelítéshez, a vonallal jelölt zöld gombra távolításhoz, vagy a zöld nyilakra a szomszédos térképek eléréséhez.


METAR-TAF: